createdAt,value
2023-02-19T00:01:10.938Z,100.00
2023-02-19T00:03:12.577Z,100.00
2023-02-19T00:05:14.373Z,100.00
2023-02-19T00:07:15.799Z,100.00
2023-02-19T00:09:18.980Z,100.00
2023-02-19T00:11:22.735Z,100.00
2023-02-19T00:13:24.151Z,100.00
2023-02-19T00:15:25.642Z,100.00
2023-02-19T00:17:27.155Z,100.00
2023-02-19T00:19:28.823Z,100.00
2023-02-19T00:21:30.554Z,100.00
2023-02-19T00:23:32.458Z,100.00
2023-02-19T00:25:36.859Z,100.00
2023-02-19T00:27:38.263Z,100.00
2023-02-19T00:29:39.912Z,100.00
2023-02-19T00:31:41.407Z,100.00
2023-02-19T00:33:42.893Z,100.00
2023-02-19T00:35:44.550Z,100.00
2023-02-19T00:37:45.981Z,100.00
2023-02-19T00:39:48.174Z,100.00
2023-02-19T00:41:49.932Z,100.00
2023-02-19T00:43:52.564Z,100.00
2023-02-19T00:45:54.024Z,100.00
2023-02-19T00:47:55.614Z,100.00
2023-02-19T00:49:57.014Z,100.00
2023-02-19T00:51:58.413Z,100.00
2023-02-19T00:54:00.203Z,100.00
2023-02-19T00:56:01.687Z,100.00
2023-02-19T00:58:03.217Z,100.00
2023-02-19T01:00:05.318Z,100.00
2023-02-19T01:02:06.688Z,100.00
2023-02-19T01:04:08.262Z,100.00
2023-02-19T01:06:11.246Z,100.00
2023-02-19T01:08:12.640Z,100.00
2023-02-19T01:10:14.079Z,100.00
2023-02-19T01:12:15.663Z,100.00
2023-02-19T01:14:17.063Z,100.00
2023-02-19T01:16:21.108Z,100.00
2023-02-19T01:18:22.978Z,100.00
2023-02-19T01:20:24.372Z,100.00
2023-02-19T01:22:25.831Z,100.00
2023-02-19T01:24:27.424Z,100.00
2023-02-19T01:26:30.923Z,100.00
2023-02-19T01:28:32.370Z,100.00
2023-02-19T01:30:35.553Z,100.00
2023-02-19T01:32:37.091Z,100.00
2023-02-19T01:34:38.622Z,100.00
2023-02-19T01:36:40.504Z,100.00
2023-02-19T01:38:42.350Z,100.00
2023-02-19T01:40:43.810Z,100.00
2023-02-19T01:42:45.389Z,100.00
2023-02-19T01:44:46.736Z,100.00
2023-02-19T01:46:48.174Z,100.00
2023-02-19T01:48:49.880Z,100.00
2023-02-19T01:50:56.923Z,100.00
2023-02-19T01:53:01.244Z,100.00
2023-02-19T01:55:07.352Z,100.00
2023-02-19T01:57:15.958Z,100.00
2023-02-19T01:59:18.498Z,100.00
2023-02-19T02:01:20.252Z,100.00
2023-02-19T02:03:22.037Z,100.00
2023-02-19T02:05:50.365Z,100.00
2023-02-19T02:07:52.176Z,100.00
2023-02-19T02:09:54.154Z,100.00
2023-02-19T02:11:55.540Z,100.00
2023-02-19T02:13:58.474Z,100.00
2023-02-19T02:16:30.189Z,100.00
2023-02-19T02:18:44.079Z,100.00
2023-02-19T02:21:24.609Z,100.00
2023-02-19T02:23:40.429Z,100.00
2023-02-19T02:25:47.853Z,100.00
2023-02-19T02:27:57.236Z,100.00
2023-02-19T02:30:25.767Z,100.00
2023-02-19T02:32:33.659Z,100.00
2023-02-19T02:34:49.361Z,100.00
2023-02-19T02:36:55.432Z,100.00
2023-02-19T02:38:57.857Z,100.00
2023-02-19T02:40:59.929Z,100.00
2023-02-19T02:43:01.383Z,100.00
2023-02-19T02:45:18.085Z,100.00
2023-02-19T02:47:19.720Z,100.00
2023-02-19T02:49:23.969Z,100.00
2023-02-19T02:51:44.062Z,100.00
2023-02-19T02:54:11.463Z,100.00
2023-02-19T02:56:15.443Z,100.00
2023-02-19T02:58:17.686Z,100.00
2023-02-19T03:00:19.547Z,100.00
2023-02-19T03:02:26.088Z,100.00
2023-02-19T03:05:08.131Z,100.00
2023-02-19T03:07:11.261Z,100.00
2023-02-19T03:09:23.391Z,100.00
2023-02-19T03:11:25.038Z,100.00
2023-02-19T03:13:35.298Z,100.00
2023-02-19T03:15:43.367Z,100.00
2023-02-19T03:17:51.157Z,100.00
2023-02-19T03:19:56.116Z,100.00
2023-02-19T03:22:05.782Z,100.00
2023-02-19T03:24:10.314Z,100.00
2023-02-19T03:26:12.740Z,100.00
2023-02-19T03:28:16.883Z,100.00
2023-02-19T03:30:26.207Z,100.00
2023-02-19T03:32:39.797Z,100.00
2023-02-19T03:34:48.703Z,100.00
2023-02-19T03:37:00.610Z,100.00
2023-02-19T03:39:05.608Z,100.00
2023-02-19T03:41:21.755Z,100.00
2023-02-19T03:43:55.880Z,100.00
2023-02-19T03:46:06.859Z,100.00
2023-02-19T03:48:30.914Z,100.00
2023-02-19T03:50:32.264Z,100.00
2023-02-19T03:52:44.695Z,100.00
2023-02-19T03:55:05.097Z,100.00
2023-02-19T03:57:39.036Z,100.00
2023-02-19T03:59:54.262Z,100.00
2023-02-19T04:02:01.961Z,100.00
2023-02-19T04:04:14.858Z,100.00
2023-02-19T04:06:22.679Z,100.00
2023-02-19T04:08:26.164Z,100.00
2023-02-19T04:10:29.486Z,100.00
2023-02-19T04:12:31.020Z,100.00
2023-02-19T04:14:50.341Z,100.00
2023-02-19T04:16:58.723Z,100.00
2023-02-19T04:19:07.624Z,100.00
2023-02-19T04:21:10.603Z,100.00
2023-02-19T04:23:14.599Z,100.00
2023-02-19T04:25:16.176Z,100.00
2023-02-19T04:27:18.280Z,100.00
2023-02-19T04:29:19.712Z,100.00
2023-02-19T04:31:21.904Z,100.00
2023-02-19T04:33:23.522Z,100.00
2023-02-19T04:35:24.920Z,100.00
2023-02-19T04:37:26.542Z,100.00
2023-02-19T04:39:28.047Z,100.00
2023-02-19T04:41:29.564Z,100.00
2023-02-19T04:43:31.081Z,100.00
2023-02-19T04:45:32.561Z,100.00
2023-02-19T04:47:34.044Z,100.00
2023-02-19T04:49:35.589Z,100.00
2023-02-19T04:51:37.235Z,100.00
2023-02-19T04:53:38.715Z,100.00
2023-02-19T04:55:40.276Z,100.00
2023-02-19T04:57:41.792Z,100.00
2023-02-19T04:59:43.272Z,100.00
2023-02-19T05:01:44.837Z,100.00
2023-02-19T05:03:46.465Z,100.00
2023-02-19T05:05:47.859Z,100.00
2023-02-19T05:07:49.403Z,100.00
2023-02-19T05:09:50.935Z,100.00
2023-02-19T05:11:52.357Z,100.00
2023-02-19T05:13:55.722Z,100.00
2023-02-19T05:15:59.493Z,100.00
2023-02-19T05:18:00.911Z,100.00
2023-02-19T05:20:02.477Z,100.00
2023-02-19T05:22:03.986Z,100.00
2023-02-19T05:24:05.605Z,100.00
2023-02-19T05:26:13.843Z,100.00
2023-02-19T05:28:15.435Z,100.00
2023-02-19T05:30:16.868Z,100.00
2023-02-19T05:32:18.828Z,100.00
2023-02-19T05:34:20.449Z,100.00
2023-02-19T05:36:22.718Z,100.00
2023-02-19T05:38:24.866Z,100.00
2023-02-19T05:40:26.408Z,100.00
2023-02-19T05:42:27.811Z,100.00
2023-02-19T05:44:29.331Z,100.00
2023-02-19T05:46:31.232Z,100.00
2023-02-19T05:48:33.366Z,100.00
2023-02-19T05:50:38.261Z,100.00
2023-02-19T05:52:41.416Z,100.00
2023-02-19T05:54:42.820Z,100.00
2023-02-19T05:56:44.495Z,100.00
2023-02-19T05:58:45.882Z,100.00
2023-02-19T06:00:47.299Z,100.00
2023-02-19T06:02:49.018Z,100.00
2023-02-19T06:04:50.477Z,100.00
2023-02-19T06:06:51.881Z,100.00
2023-02-19T06:08:54.015Z,100.00
2023-02-19T06:10:55.408Z,100.00
2023-02-19T06:12:56.878Z,100.00
2023-02-19T06:14:58.581Z,100.00
2023-02-19T06:16:59.976Z,100.00
2023-02-19T06:19:04.731Z,100.00
2023-02-19T06:21:09.446Z,100.00
2023-02-19T06:23:11.070Z,100.00
2023-02-19T06:25:12.459Z,100.00
2023-02-19T06:27:14.181Z,100.00
2023-02-19T06:29:17.022Z,100.00
2023-02-19T06:31:20.232Z,100.00
2023-02-19T06:33:22.032Z,100.00
2023-02-19T06:35:23.483Z,100.00
2023-02-19T06:37:24.950Z,100.00
2023-02-19T06:39:27.110Z,100.00
2023-02-19T06:41:28.547Z,100.00
2023-02-19T06:43:31.502Z,100.00
2023-02-19T06:45:33.431Z,100.00
2023-02-19T06:47:34.825Z,100.00
2023-02-19T06:49:36.210Z,100.00
2023-02-19T06:51:37.882Z,100.00
2023-02-19T06:53:39.353Z,100.00
2023-02-19T06:55:40.818Z,100.00
2023-02-19T06:57:42.490Z,100.00
2023-02-19T06:59:43.957Z,100.00
2023-02-19T07:01:46.216Z,100.00
2023-02-19T07:03:47.985Z,100.00
2023-02-19T07:05:49.873Z,100.00
2023-02-19T07:07:51.357Z,100.00
2023-02-19T07:09:52.978Z,100.00
2023-02-19T07:11:54.699Z,100.00
2023-02-19T07:13:58.708Z,100.00
2023-02-19T07:16:03.436Z,100.00
2023-02-19T07:18:04.961Z,100.00
2023-02-19T07:20:06.538Z,100.00
2023-02-19T07:22:08.178Z,100.00
2023-02-19T07:24:10.226Z,100.00
2023-02-19T07:26:13.279Z,100.00
2023-02-19T07:28:14.880Z,100.00
2023-02-19T07:30:16.363Z,100.00
2023-02-19T07:32:17.782Z,100.00
2023-02-19T07:34:19.396Z,100.00
2023-02-19T07:36:23.067Z,100.00
2023-02-19T07:38:25.264Z,100.00
2023-02-19T07:40:26.872Z,100.00
2023-02-19T07:42:28.312Z,100.00
2023-02-19T07:44:29.692Z,100.00
2023-02-19T07:46:31.432Z,100.00
2023-02-19T07:48:34.499Z,100.00
2023-02-19T07:50:35.967Z,100.00
2023-02-19T07:52:37.772Z,100.00
2023-02-19T07:54:39.159Z,100.00
2023-02-19T07:56:40.560Z,100.00
2023-02-19T07:58:42.549Z,100.00
2023-02-19T08:00:43.952Z,100.00
2023-02-19T08:02:46.054Z,100.00
2023-02-19T08:04:48.041Z,100.00
2023-02-19T08:06:49.419Z,100.00
2023-02-19T08:08:50.807Z,100.00
2023-02-19T08:10:52.566Z,100.00
2023-02-19T08:13:01.238Z,100.00
2023-02-19T08:15:02.704Z,100.00
2023-02-19T08:17:04.339Z,100.00
2023-02-19T08:19:05.791Z,100.00
2023-02-19T08:21:07.299Z,100.00
2023-02-19T08:23:09.746Z,100.00
2023-02-19T08:25:11.208Z,100.00
2023-02-19T08:27:12.611Z,100.00
2023-02-19T08:29:14.067Z,100.00
2023-02-19T08:31:16.078Z,100.00
2023-02-19T08:33:20.690Z,100.00
2023-02-19T08:35:22.790Z,100.00
2023-02-19T08:37:24.181Z,100.00
2023-02-19T08:39:25.621Z,100.00
2023-02-19T08:41:27.245Z,100.00
2023-02-19T08:43:28.674Z,100.00
2023-02-19T08:45:30.512Z,100.00
2023-02-19T08:47:34.400Z,100.00
2023-02-19T08:49:35.822Z,100.00
2023-02-19T08:51:37.268Z,100.00
2023-02-19T08:53:40.751Z,100.00
2023-02-19T08:55:42.171Z,100.00
2023-02-19T08:57:44.009Z,100.00
2023-02-19T08:59:45.679Z,100.00
2023-02-19T09:01:47.300Z,100.00
2023-02-19T09:03:48.790Z,100.00
2023-02-19T09:05:50.638Z,100.00
2023-02-19T09:07:52.030Z,100.00
2023-02-19T09:09:53.983Z,100.00
2023-02-19T09:11:55.556Z,100.00
2023-02-19T09:13:57.269Z,100.00
2023-02-19T09:15:58.746Z,100.00
2023-02-19T09:18:00.392Z,100.00
2023-02-19T09:20:01.828Z,100.00
2023-02-19T09:22:04.838Z,100.00
2023-02-19T09:24:08.839Z,100.00
2023-02-19T09:26:10.351Z,100.00
2023-02-19T09:28:11.755Z,100.00
2023-02-19T09:30:13.600Z,100.00
2023-02-19T09:32:15.952Z,100.00
2023-02-19T09:34:18.067Z,100.00
2023-02-19T09:36:19.744Z,100.00
2023-02-19T09:38:21.180Z,100.00
2023-02-19T09:40:22.584Z,100.00
2023-02-19T09:42:28.377Z,100.00
2023-02-19T09:44:45.420Z,100.00
2023-02-19T09:46:52.698Z,100.00
2023-02-19T09:48:59.168Z,100.00
2023-02-19T09:51:01.871Z,100.00
2023-02-19T09:53:11.283Z,100.00
2023-02-19T09:55:33.462Z,100.00
2023-02-19T09:57:36.402Z,100.00
2023-02-19T09:59:44.673Z,100.00
2023-02-19T10:01:49.505Z,100.00
2023-02-19T10:03:50.979Z,100.00
2023-02-19T10:05:53.953Z,100.00
2023-02-19T10:07:56.674Z,100.00
2023-02-19T10:10:18.286Z,100.00
2023-02-19T10:12:28.580Z,100.00
2023-02-19T10:14:44.898Z,100.00
2023-02-19T10:16:49.079Z,100.00
2023-02-19T10:18:50.961Z,100.00
2023-02-19T10:20:53.273Z,100.00
2023-02-19T10:23:02.700Z,100.00
2023-02-19T10:25:04.459Z,100.00
2023-02-19T10:27:12.043Z,100.00
2023-02-19T10:29:13.436Z,100.00
2023-02-19T10:31:23.339Z,100.00
2023-02-19T10:33:25.620Z,100.00
2023-02-19T10:35:27.472Z,100.00
2023-02-19T10:37:29.603Z,100.00
2023-02-19T10:39:41.876Z,100.00
2023-02-19T10:41:44.407Z,100.00
2023-02-19T10:43:53.125Z,100.00
2023-02-19T10:45:55.049Z,100.00
2023-02-19T10:47:57.271Z,100.00
2023-02-19T10:50:02.114Z,100.00
2023-02-19T10:52:35.537Z,100.00
2023-02-19T10:54:37.002Z,100.00
2023-02-19T10:56:38.567Z,100.00
2023-02-19T10:58:40.546Z,100.00
2023-02-19T11:00:41.970Z,100.00
2023-02-19T11:02:44.632Z,100.00
2023-02-19T11:05:10.792Z,100.00
2023-02-19T11:07:17.043Z,100.00
2023-02-19T11:09:39.198Z,100.00
2023-02-19T11:11:41.133Z,100.00
2023-02-19T11:13:42.788Z,100.00
2023-02-19T11:15:52.909Z,99.93
2023-02-19T11:18:13.819Z,100.00
2023-02-19T11:20:17.409Z,99.50
2023-02-19T11:22:38.722Z,100.00
2023-02-19T11:24:40.297Z,100.00
2023-02-19T11:26:44.711Z,98.99
2023-02-19T11:28:54.944Z,98.28
2023-02-19T11:31:14.705Z,97.59
2023-02-19T11:33:16.309Z,97.83
2023-02-19T11:35:22.093Z,95.02
2023-02-19T11:37:23.718Z,95.28
2023-02-19T11:39:30.633Z,96.14
2023-02-19T11:41:56.105Z,96.34
2023-02-19T11:44:04.414Z,94.77
2023-02-19T11:46:25.886Z,95.08
2023-02-19T11:48:38.300Z,91.41
2023-02-19T11:50:45.676Z,88.20
2023-02-19T11:52:50.032Z,91.78
2023-02-19T11:54:59.436Z,90.79
2023-02-19T11:57:36.303Z,92.91
2023-02-19T11:59:45.706Z,95.62
2023-02-19T12:02:06.018Z,97.87
2023-02-19T12:04:19.334Z,98.43
2023-02-19T12:06:38.107Z,96.67
2023-02-19T12:08:58.239Z,93.53
2023-02-19T12:11:27.163Z,90.22
2023-02-19T12:13:54.336Z,90.81
2023-02-19T12:16:08.945Z,92.68
2023-02-19T12:18:36.766Z,92.87
2023-02-19T12:21:01.326Z,93.78
2023-02-19T12:23:40.336Z,92.11
2023-02-19T12:26:01.671Z,92.24
2023-02-19T12:28:26.296Z,92.29
2023-02-19T12:30:45.635Z,95.34
2023-02-19T12:32:55.180Z,89.09
2023-02-19T12:35:14.528Z,84.16
2023-02-19T12:37:15.967Z,85.55
2023-02-19T12:39:17.322Z,83.47
2023-02-19T12:41:30.780Z,83.80
2023-02-19T12:43:34.771Z,83.74
2023-02-19T12:45:46.833Z,85.53
2023-02-19T12:48:03.850Z,84.14
2023-02-19T12:50:20.120Z,83.50
2023-02-19T12:52:26.383Z,82.40
2023-02-19T12:54:34.576Z,82.53
2023-02-19T12:57:03.358Z,82.07
2023-02-19T12:59:22.863Z,80.74
2023-02-19T13:01:30.472Z,78.87
2023-02-19T13:03:39.473Z,78.82
2023-02-19T13:05:40.828Z,78.81
2023-02-19T13:08:03.320Z,78.37
2023-02-19T13:10:10.878Z,77.28
2023-02-19T13:12:23.375Z,78.37
2023-02-19T13:14:33.846Z,79.37
2023-02-19T13:16:40.150Z,79.58
2023-02-19T13:18:50.907Z,80.11
2023-02-19T13:20:53.179Z,79.56
2023-02-19T13:23:04.155Z,80.39
2023-02-19T13:25:07.662Z,79.27
2023-02-19T13:27:31.438Z,79.29
2023-02-19T13:29:54.767Z,78.50
2023-02-19T13:32:27.088Z,79.42
2023-02-19T13:34:53.304Z,78.27
2023-02-19T13:36:56.113Z,81.39
2023-02-19T13:38:59.619Z,78.40
2023-02-19T13:41:01.413Z,80.83
2023-02-19T13:43:06.044Z,78.35
2023-02-19T13:45:07.767Z,78.82
2023-02-19T13:47:49.013Z,80.14
2023-02-19T13:49:50.571Z,78.04
2023-02-19T13:51:54.202Z,77.92
2023-02-19T13:53:55.582Z,79.20
2023-02-19T13:55:57.101Z,76.86
2023-02-19T13:58:32.842Z,77.41
2023-02-19T14:00:49.862Z,76.34
2023-02-19T14:03:29.893Z,74.97
2023-02-19T14:06:08.465Z,74.94
2023-02-19T14:08:09.913Z,74.09
2023-02-19T14:10:33.251Z,75.73
2023-02-19T14:12:37.175Z,75.30
2023-02-19T14:14:42.226Z,76.42
2023-02-19T14:16:55.564Z,75.43
2023-02-19T14:18:57.151Z,76.06
2023-02-19T14:21:14.158Z,77.54
2023-02-19T14:23:22.596Z,77.53
2023-02-19T14:25:28.913Z,77.91
2023-02-19T14:27:30.417Z,76.45
2023-02-19T14:29:32.173Z,78.78
2023-02-19T14:31:38.277Z,78.81
2023-02-19T14:33:44.963Z,77.74
2023-02-19T14:35:49.757Z,77.63
2023-02-19T14:37:55.099Z,78.01
2023-02-19T14:39:57.729Z,76.66
2023-02-19T14:42:02.806Z,74.98
2023-02-19T14:44:08.231Z,72.88
2023-02-19T14:46:24.341Z,73.01
2023-02-19T14:48:33.329Z,73.27
2023-02-19T14:50:35.104Z,71.74
2023-02-19T14:52:43.307Z,72.14
2023-02-19T14:54:51.874Z,72.68
2023-02-19T14:56:54.611Z,72.95
2023-02-19T14:59:21.187Z,74.69
2023-02-19T15:01:29.598Z,74.16
2023-02-19T15:03:36.552Z,73.19
2023-02-19T15:05:38.398Z,74.26
2023-02-19T15:07:41.965Z,74.04
2023-02-19T15:09:52.571Z,74.06
2023-02-19T15:11:54.849Z,75.44
2023-02-19T15:14:00.788Z,74.28
2023-02-19T15:16:02.464Z,74.55
2023-02-19T15:18:05.147Z,72.88
2023-02-19T15:20:11.560Z,72.61
2023-02-19T15:22:20.974Z,73.28
2023-02-19T15:24:22.677Z,75.00
2023-02-19T15:26:32.113Z,74.03
2023-02-19T15:28:34.228Z,72.79
2023-02-19T15:30:35.719Z,73.67
2023-02-19T15:32:37.330Z,75.51
2023-02-19T15:34:38.723Z,75.61
2023-02-19T15:36:40.310Z,75.85
2023-02-19T15:38:42.106Z,76.30
2023-02-19T15:40:45.352Z,76.40
2023-02-19T15:42:47.592Z,75.50
2023-02-19T15:44:59.027Z,75.24
2023-02-19T15:47:06.631Z,75.09
2023-02-19T15:49:17.668Z,75.04
2023-02-19T15:51:26.430Z,74.06
2023-02-19T15:53:30.853Z,73.88
2023-02-19T15:55:32.264Z,74.26
2023-02-19T15:57:40.778Z,75.79
2023-02-19T15:59:50.149Z,74.88
2023-02-19T16:01:51.857Z,75.46
2023-02-19T16:03:54.617Z,73.91
2023-02-19T16:05:58.924Z,75.01
2023-02-19T16:08:08.202Z,75.26
2023-02-19T16:10:24.412Z,75.40
2023-02-19T16:12:26.590Z,75.39
2023-02-19T16:14:33.632Z,75.57
2023-02-19T16:16:38.727Z,76.22
2023-02-19T16:18:47.688Z,76.70
2023-02-19T16:20:49.172Z,76.41
2023-02-19T16:22:52.327Z,76.89
2023-02-19T16:24:57.461Z,76.78
2023-02-19T16:26:59.322Z,77.22
2023-02-19T16:29:01.390Z,75.83
2023-02-19T16:31:05.744Z,76.12
2023-02-19T16:33:41.515Z,77.09
2023-02-19T16:35:43.021Z,76.20
2023-02-19T16:37:58.236Z,77.51
2023-02-19T16:40:08.507Z,76.68
2023-02-19T16:42:14.458Z,77.25
2023-02-19T16:44:24.880Z,77.06
2023-02-19T16:46:26.328Z,78.73
2023-02-19T16:48:28.305Z,79.74
2023-02-19T16:50:29.795Z,81.43
2023-02-19T16:52:31.270Z,81.71
2023-02-19T16:54:32.838Z,80.55
2023-02-19T16:56:34.293Z,78.51
2023-02-19T16:58:36.437Z,77.42
2023-02-19T17:00:38.705Z,77.81
2023-02-19T17:02:40.327Z,77.71
2023-02-19T17:04:41.927Z,77.87
2023-02-19T17:06:43.688Z,79.25
2023-02-19T17:08:45.272Z,78.86
2023-02-19T17:10:46.852Z,78.97
2023-02-19T17:12:48.985Z,78.53
2023-02-19T17:14:50.462Z,79.79
2023-02-19T17:16:51.872Z,79.48
2023-02-19T17:18:54.467Z,81.02
2023-02-19T17:21:05.152Z,80.07
2023-02-19T17:23:06.535Z,80.56
2023-02-19T17:25:08.135Z,81.84
2023-02-19T17:27:13.010Z,83.04
2023-02-19T17:29:16.017Z,82.83
2023-02-19T17:31:18.258Z,82.66
2023-02-19T17:33:19.899Z,83.75
2023-02-19T17:35:21.382Z,82.31
2023-02-19T17:37:22.985Z,83.13
2023-02-19T17:39:24.485Z,84.20
2023-02-19T17:41:26.129Z,83.03
2023-02-19T17:43:27.652Z,83.17
2023-02-19T17:45:29.165Z,82.68
2023-02-19T17:47:30.575Z,84.31
2023-02-19T17:49:32.027Z,83.29
2023-02-19T17:51:34.951Z,83.80
2023-02-19T17:53:36.372Z,83.49
2023-02-19T17:55:37.885Z,82.91
2023-02-19T17:57:39.377Z,83.16
2023-02-19T17:59:40.827Z,82.34
2023-02-19T18:01:42.308Z,82.94
2023-02-19T18:03:44.032Z,82.66
2023-02-19T18:05:45.739Z,82.73
2023-02-19T18:07:48.299Z,83.72
2023-02-19T18:09:49.881Z,84.11
2023-02-19T18:11:51.323Z,83.34
2023-02-19T18:13:52.834Z,84.50
2023-02-19T18:15:54.324Z,85.27
2023-02-19T18:17:56.867Z,85.09
2023-02-19T18:19:58.340Z,85.21
2023-02-19T18:21:59.819Z,82.97
2023-02-19T18:24:01.219Z,82.25
2023-02-19T18:26:02.828Z,82.07
2023-02-19T18:28:04.568Z,82.34
2023-02-19T18:30:09.784Z,82.23
2023-02-19T18:32:11.907Z,81.50
2023-02-19T18:34:18.771Z,81.57
2023-02-19T18:36:20.184Z,81.45
2023-02-19T18:38:21.819Z,81.81
2023-02-19T18:40:24.036Z,81.30
2023-02-19T18:42:25.799Z,80.65
2023-02-19T18:44:27.405Z,81.24
2023-02-19T18:46:30.467Z,81.41
2023-02-19T18:48:32.326Z,82.22
2023-02-19T18:50:33.799Z,83.09
2023-02-19T18:52:35.386Z,82.21
2023-02-19T18:54:36.801Z,81.88
2023-02-19T18:56:45.780Z,81.82
2023-02-19T18:58:49.448Z,82.13
2023-02-19T19:00:52.401Z,82.36
2023-02-19T19:03:00.106Z,81.31
2023-02-19T19:05:01.876Z,81.46
2023-02-19T19:07:06.940Z,81.59
2023-02-19T19:09:09.011Z,81.06
2023-02-19T19:11:10.941Z,81.85
2023-02-19T19:13:12.643Z,81.99
2023-02-19T19:15:17.938Z,82.14
2023-02-19T19:17:19.644Z,82.39
2023-02-19T19:19:21.109Z,81.67
2023-02-19T19:21:23.020Z,81.25
2023-02-19T19:23:24.715Z,81.36
2023-02-19T19:25:26.147Z,81.96
2023-02-19T19:27:27.688Z,82.46
2023-02-19T19:29:29.175Z,81.84
2023-02-19T19:31:35.564Z,83.14
2023-02-19T19:33:37.360Z,83.66
2023-02-19T19:35:38.907Z,82.84
2023-02-19T19:37:40.290Z,83.06
2023-02-19T19:39:43.563Z,84.09
2023-02-19T19:41:45.179Z,84.51
2023-02-19T19:43:46.673Z,84.55
2023-02-19T19:45:48.142Z,85.81
2023-02-19T19:47:49.634Z,85.06
2023-02-19T19:49:51.049Z,86.11
2023-02-19T19:51:52.564Z,85.88
2023-02-19T19:53:54.046Z,86.17
2023-02-19T19:55:55.461Z,87.68
2023-02-19T19:57:56.938Z,87.40
2023-02-19T19:59:58.412Z,87.94
2023-02-19T20:01:59.913Z,88.08
2023-02-19T20:04:01.432Z,89.18
2023-02-19T20:06:02.927Z,90.26
2023-02-19T20:08:04.600Z,90.01
2023-02-19T20:10:07.774Z,89.96
2023-02-19T20:12:09.329Z,90.14
2023-02-19T20:14:10.747Z,89.65
2023-02-19T20:16:12.303Z,90.23
2023-02-19T20:18:13.958Z,90.49
2023-02-19T20:20:17.323Z,91.15
2023-02-19T20:22:19.272Z,91.44
2023-02-19T20:24:28.706Z,93.16
2023-02-19T20:26:30.814Z,92.09
2023-02-19T20:28:32.624Z,93.25
2023-02-19T20:30:34.080Z,94.37
2023-02-19T20:32:35.828Z,94.23
2023-02-19T20:34:37.561Z,95.07
2023-02-19T20:36:43.333Z,95.59
2023-02-19T20:38:49.266Z,97.50
2023-02-19T20:40:50.839Z,99.54
2023-02-19T20:42:52.322Z,98.92
2023-02-19T20:44:53.695Z,100.00
2023-02-19T20:46:56.610Z,100.00
2023-02-19T20:48:58.427Z,100.00
2023-02-19T20:50:59.902Z,100.00
2023-02-19T20:53:01.507Z,100.00
2023-02-19T20:55:03.122Z,100.00
2023-02-19T20:57:05.815Z,100.00
2023-02-19T20:59:07.500Z,100.00
2023-02-19T21:01:09.253Z,100.00
2023-02-19T21:03:10.642Z,100.00
2023-02-19T21:05:12.120Z,100.00
2023-02-19T21:07:13.662Z,100.00
2023-02-19T21:09:15.112Z,100.00
2023-02-19T21:11:16.579Z,100.00
2023-02-19T21:13:18.195Z,100.00
2023-02-19T21:15:20.163Z,100.00
2023-02-19T21:17:21.754Z,100.00
2023-02-19T21:19:23.296Z,100.00
2023-02-19T21:21:25.638Z,100.00
2023-02-19T21:23:27.206Z,100.00
2023-02-19T21:25:28.689Z,100.00
2023-02-19T21:27:30.072Z,100.00
2023-02-19T21:29:31.787Z,100.00
2023-02-19T21:31:38.977Z,100.00
2023-02-19T21:33:40.444Z,100.00
2023-02-19T21:35:42.420Z,100.00
2023-02-19T21:37:44.254Z,100.00
2023-02-19T21:39:45.704Z,100.00
2023-02-19T21:41:47.413Z,100.00
2023-02-19T21:43:49.447Z,100.00
2023-02-19T21:45:50.925Z,100.00
2023-02-19T21:47:52.581Z,100.00
2023-02-19T21:49:54.150Z,100.00
2023-02-19T21:51:55.609Z,100.00
2023-02-19T21:53:58.012Z,100.00
2023-02-19T21:55:59.742Z,100.00
2023-02-19T21:58:01.113Z,100.00
2023-02-19T22:00:03.818Z,100.00
2023-02-19T22:02:05.291Z,100.00
2023-02-19T22:04:07.663Z,100.00
2023-02-19T22:06:09.146Z,100.00
2023-02-19T22:08:10.619Z,100.00
2023-02-19T22:10:12.035Z,100.00
2023-02-19T22:12:13.636Z,100.00
2023-02-19T22:14:15.110Z,100.00
2023-02-19T22:16:17.493Z,100.00
2023-02-19T22:18:18.985Z,100.00
2023-02-19T22:20:20.582Z,100.00
2023-02-19T22:22:21.983Z,100.00
2023-02-19T22:24:24.252Z,100.00
2023-02-19T22:26:28.778Z,100.00
2023-02-19T22:28:30.199Z,100.00
2023-02-19T22:30:31.769Z,100.00
2023-02-19T22:32:33.375Z,100.00
2023-02-19T22:34:38.496Z,100.00
2023-02-19T22:36:39.888Z,100.00
2023-02-19T22:38:41.607Z,100.00
2023-02-19T22:40:43.123Z,100.00
2023-02-19T22:42:44.611Z,100.00
2023-02-19T22:44:46.081Z,100.00
2023-02-19T22:46:56.828Z,100.00
2023-02-19T22:49:01.812Z,100.00
2023-02-19T22:51:03.495Z,100.00
2023-02-19T22:53:04.924Z,100.00
2023-02-19T22:55:06.340Z,100.00
2023-02-19T22:57:07.867Z,100.00
2023-02-19T22:59:09.469Z,100.00
2023-02-19T23:01:13.013Z,100.00
2023-02-19T23:03:14.664Z,100.00
2023-02-19T23:05:16.502Z,100.00
2023-02-19T23:07:17.931Z,100.00
2023-02-19T23:09:25.134Z,100.00
2023-02-19T23:11:29.686Z,100.00
2023-02-19T23:13:31.285Z,100.00
2023-02-19T23:15:32.693Z,100.00
2023-02-19T23:17:34.155Z,100.00
2023-02-19T23:19:35.748Z,100.00
2023-02-19T23:21:41.708Z,100.00
2023-02-19T23:23:44.755Z,100.00
2023-02-19T23:25:46.317Z,100.00
2023-02-19T23:27:47.762Z,100.00
2023-02-19T23:29:49.169Z,100.00
2023-02-19T23:31:50.914Z,100.00
2023-02-19T23:33:53.501Z,100.00
2023-02-19T23:35:54.932Z,100.00
2023-02-19T23:37:56.440Z,100.00
2023-02-19T23:39:58.079Z,100.00
2023-02-19T23:41:59.484Z,100.00
2023-02-19T23:44:01.084Z,100.00
2023-02-19T23:46:03.127Z,100.00
2023-02-19T23:48:04.607Z,100.00
2023-02-19T23:50:06.819Z,100.00
2023-02-19T23:52:08.255Z,100.00
2023-02-19T23:54:10.591Z,100.00
2023-02-19T23:56:12.479Z,100.00
2023-02-19T23:58:14.572Z,100.00
